createdAt,value
2023-02-28T00:00:49.401Z,72.84
2023-02-28T00:03:51.118Z,72.57
2023-02-28T00:06:52.701Z,72.53
2023-02-28T00:09:55.813Z,73.19
2023-02-28T00:13:00.425Z,74.06
2023-02-28T00:16:03.154Z,74.35
2023-02-28T00:19:04.707Z,74.26
2023-02-28T00:22:06.594Z,73.84
2023-02-28T00:25:10.465Z,73.61
2023-02-28T00:28:12.095Z,74.16
2023-02-28T00:31:13.857Z,74.66
2023-02-28T00:34:15.417Z,74.47
2023-02-28T00:37:17.151Z,73.96
2023-02-28T00:40:20.139Z,74.58
2023-02-28T00:43:21.991Z,74.47
2023-02-28T00:46:23.552Z,74.40
2023-02-28T00:49:26.360Z,74.69
2023-02-28T00:52:28.014Z,74.89
2023-02-28T00:55:31.459Z,74.77
2023-02-28T00:58:33.214Z,75.72
2023-02-28T01:01:35.511Z,76.11
2023-02-28T01:04:37.441Z,75.76
2023-02-28T01:07:39.432Z,76.26
2023-02-28T01:10:42.524Z,76.15
2023-02-28T01:13:45.166Z,76.10
2023-02-28T01:16:47.539Z,76.02
2023-02-28T01:19:49.122Z,76.63
2023-02-28T01:22:50.666Z,76.50
2023-02-28T01:25:53.643Z,77.13
2023-02-28T01:28:55.366Z,77.20
2023-02-28T01:31:58.198Z,77.01
2023-02-28T01:34:59.767Z,77.46
2023-02-28T01:38:15.784Z,77.33
2023-02-28T01:41:25.200Z,77.85
2023-02-28T01:44:47.239Z,77.80
2023-02-28T01:47:49.483Z,77.51
2023-02-28T01:50:51.250Z,77.75
2023-02-28T01:53:56.749Z,77.88
2023-02-28T01:57:01.905Z,78.11
2023-02-28T02:00:06.129Z,78.41
2023-02-28T02:03:17.364Z,78.47
2023-02-28T02:06:19.076Z,78.35
2023-02-28T02:09:21.068Z,78.43
2023-02-28T02:12:29.390Z,78.51
2023-02-28T02:15:33.766Z,78.82
2023-02-28T02:18:39.110Z,78.66
2023-02-28T02:22:04.905Z,78.78
2023-02-28T02:25:20.647Z,78.73
2023-02-28T02:28:34.690Z,79.05
2023-02-28T02:31:54.401Z,79.30
2023-02-28T02:35:04.221Z,78.98
2023-02-28T02:38:10.240Z,79.00
2023-02-28T02:41:15.533Z,79.13
2023-02-28T02:44:21.543Z,79.22
2023-02-28T02:47:28.621Z,79.48
2023-02-28T02:50:34.640Z,79.73
2023-02-28T02:53:38.189Z,79.51
2023-02-28T02:56:42.265Z,79.64
2023-02-28T02:59:44.219Z,79.74
2023-02-28T03:02:46.721Z,79.92
2023-02-28T03:05:51.430Z,80.07
2023-02-28T03:08:53.457Z,79.92
2023-02-28T03:11:57.955Z,79.65
2023-02-28T03:15:05.239Z,79.78
2023-02-28T03:18:09.372Z,79.57
2023-02-28T03:21:18.911Z,79.44
2023-02-28T03:24:23.669Z,79.38
2023-02-28T03:27:28.495Z,78.69
2023-02-28T03:30:32.826Z,78.25
2023-02-28T03:33:36.959Z,77.50
2023-02-28T03:36:45.521Z,77.36
2023-02-28T03:39:50.200Z,76.97
2023-02-28T03:42:55.107Z,76.25
2023-02-28T03:45:57.446Z,76.27
2023-02-28T03:49:03.176Z,75.83
2023-02-28T03:52:07.101Z,75.65
2023-02-28T03:55:11.253Z,75.69
2023-02-28T03:58:17.190Z,76.04
2023-02-28T04:01:21.321Z,75.82
2023-02-28T04:04:23.745Z,75.98
2023-02-28T04:07:37.999Z,76.17
2023-02-28T04:10:40.039Z,76.26
2023-02-28T04:13:41.619Z,76.43
2023-02-28T04:16:43.373Z,76.63
2023-02-28T04:19:45.232Z,76.88
2023-02-28T04:22:48.547Z,77.14
2023-02-28T04:25:52.226Z,77.62
2023-02-28T04:28:53.767Z,77.89
2023-02-28T04:31:55.570Z,78.08
2023-02-28T04:34:57.220Z,78.34
2023-02-28T04:38:00.529Z,78.74
2023-02-28T04:41:02.209Z,78.91
2023-02-28T04:44:03.918Z,79.22
2023-02-28T04:47:05.689Z,79.67
2023-02-28T04:50:07.631Z,79.80
2023-02-28T04:53:10.649Z,80.04
2023-02-28T04:56:13.406Z,80.39
2023-02-28T04:59:15.002Z,80.46
2023-02-28T05:02:16.552Z,80.56
2023-02-28T05:05:19.649Z,81.10
2023-02-28T05:08:22.740Z,81.12
2023-02-28T05:11:26.371Z,81.31
2023-02-28T05:14:27.958Z,81.60
2023-02-28T05:17:29.515Z,81.55
2023-02-28T05:20:31.241Z,81.80
2023-02-28T05:23:34.536Z,81.90
2023-02-28T05:26:38.039Z,81.95
2023-02-28T05:29:44.241Z,82.00
2023-02-28T05:32:50.915Z,82.43
2023-02-28T05:35:52.470Z,82.42
2023-02-28T05:38:55.606Z,82.68
2023-02-28T05:41:57.491Z,82.91
2023-02-28T05:44:59.125Z,82.91
2023-02-28T05:48:00.805Z,82.83
2023-02-28T05:51:03.576Z,82.71
2023-02-28T05:54:06.656Z,82.58
2023-02-28T05:57:18.941Z,82.63
2023-02-28T06:00:25.677Z,82.94
2023-02-28T06:03:27.857Z,83.00
2023-02-28T06:06:30.578Z,83.42
2023-02-28T06:09:33.504Z,83.42
2023-02-28T06:12:35.012Z,83.36
2023-02-28T06:15:36.667Z,83.44
2023-02-28T06:18:38.859Z,84.06
2023-02-28T06:21:40.704Z,83.79
2023-02-28T06:24:43.607Z,83.64
2023-02-28T06:27:45.264Z,83.66
2023-02-28T06:30:47.041Z,83.81
2023-02-28T06:33:48.790Z,83.70
2023-02-28T06:36:51.769Z,83.83
2023-02-28T06:39:57.097Z,83.62
2023-02-28T06:42:59.170Z,83.42
2023-02-28T06:46:01.889Z,83.06
2023-02-28T06:49:03.626Z,83.04
2023-02-28T06:52:05.739Z,83.09
2023-02-28T06:55:09.370Z,83.08
2023-02-28T06:58:16.964Z,83.15
2023-02-28T07:01:18.624Z,82.94
2023-02-28T07:04:20.263Z,82.56
2023-02-28T07:07:21.890Z,81.86
2023-02-28T07:10:24.785Z,81.54
2023-02-28T07:13:26.659Z,81.26
2023-02-28T07:16:28.335Z,80.95
2023-02-28T07:19:30.120Z,80.95
2023-02-28T07:22:31.799Z,80.77
2023-02-28T07:25:34.698Z,80.41
2023-02-28T07:28:36.269Z,80.29
2023-02-28T07:31:38.498Z,80.23
2023-02-28T07:34:40.239Z,80.19
2023-02-28T07:37:42.599Z,79.52
2023-02-28T07:40:45.548Z,79.02
2023-02-28T07:43:47.140Z,79.08
2023-02-28T07:46:48.849Z,78.65
2023-02-28T07:53:51.760Z,78.50
2023-02-28T07:56:54.759Z,78.62
2023-02-28T07:59:56.375Z,78.42
2023-02-28T08:02:57.916Z,77.90
2023-02-28T08:05:59.585Z,77.59
2023-02-28T08:09:01.230Z,77.83
2023-02-28T08:12:04.365Z,77.33
2023-02-28T08:15:06.373Z,77.65
2023-02-28T08:18:10.821Z,77.72
2023-02-28T08:21:12.797Z,77.72
2023-02-28T08:24:14.279Z,77.29
2023-02-28T08:27:18.327Z,77.65
2023-02-28T08:30:20.179Z,77.55
2023-02-28T08:33:22.023Z,76.95
2023-02-28T08:36:24.895Z,77.09
2023-02-28T08:39:26.497Z,77.18
2023-02-28T08:42:29.501Z,76.65
2023-02-28T08:45:31.701Z,77.06
2023-02-28T08:48:35.801Z,76.67
2023-02-28T08:51:37.484Z,77.05
2023-02-28T08:54:39.739Z,76.79
2023-02-28T08:57:42.753Z,77.03
2023-02-28T09:00:44.374Z,77.01
2023-02-28T09:03:47.146Z,77.16
2023-02-28T09:06:49.820Z,76.87
2023-02-28T09:09:58.796Z,76.65
2023-02-28T09:13:01.900Z,76.32
2023-02-28T09:16:04.910Z,75.34
2023-02-28T09:19:06.559Z,76.01
2023-02-28T09:22:08.111Z,76.51
2023-02-28T09:25:09.690Z,76.89
2023-02-28T09:28:12.712Z,76.32
2023-02-28T09:31:14.870Z,76.54
2023-02-28T09:34:18.622Z,76.79
2023-02-28T09:37:20.349Z,77.42
2023-02-28T09:40:23.588Z,77.02
2023-02-28T09:43:29.756Z,77.17
2023-02-28T09:46:34.176Z,77.72
2023-02-28T09:49:39.159Z,76.81
2023-02-28T09:52:41.159Z,77.50
2023-02-28T09:55:47.049Z,77.36
2023-02-28T09:58:52.717Z,77.54
2023-02-28T10:01:58.418Z,77.90
2023-02-28T10:05:01.621Z,78.20
2023-02-28T10:08:06.801Z,78.96
2023-02-28T10:11:11.550Z,78.37
2023-02-28T10:14:19.198Z,78.58
2023-02-28T10:17:22.012Z,79.76
2023-02-28T10:20:30.724Z,79.12
2023-02-28T10:23:35.851Z,79.31
2023-02-28T10:26:37.659Z,77.82
2023-02-28T10:29:43.500Z,78.72
2023-02-28T10:32:48.634Z,78.01
2023-02-28T10:35:50.739Z,78.17
2023-02-28T10:38:52.392Z,77.79
2023-02-28T10:41:54.782Z,76.90
2023-02-28T10:45:08.253Z,76.94
2023-02-28T10:48:28.093Z,77.51
2023-02-28T10:51:35.387Z,77.89
2023-02-28T10:54:38.807Z,78.04
2023-02-28T10:57:40.898Z,78.51
2023-02-28T11:00:43.861Z,78.99
2023-02-28T11:03:45.699Z,78.61
2023-02-28T11:06:47.461Z,77.47
2023-02-28T11:09:50.351Z,76.68
2023-02-28T11:12:55.552Z,76.06
2023-02-28T11:16:00.001Z,76.19
2023-02-28T11:19:01.678Z,74.42
2023-02-28T11:22:05.013Z,73.90
2023-02-28T11:25:09.066Z,71.65
2023-02-28T11:28:25.786Z,73.06
2023-02-28T11:31:30.894Z,70.39
2023-02-28T11:34:33.395Z,70.38
2023-02-28T11:37:35.565Z,70.21
2023-02-28T11:40:42.411Z,67.68
2023-02-28T11:43:53.492Z,68.69
2023-02-28T11:46:59.917Z,68.61
2023-02-28T11:50:08.621Z,67.66
2023-02-28T11:53:14.971Z,66.84
2023-02-28T11:56:24.228Z,66.96
2023-02-28T11:59:46.339Z,66.52
2023-02-28T12:03:00.137Z,66.97
2023-02-28T12:06:10.688Z,66.34
2023-02-28T12:09:19.799Z,66.48
2023-02-28T12:12:25.501Z,65.65
2023-02-28T12:15:42.627Z,64.50
2023-02-28T12:18:54.406Z,65.59
2023-02-28T12:22:07.781Z,65.66
2023-02-28T12:25:25.365Z,64.26
2023-02-28T12:28:29.583Z,63.59
2023-02-28T12:31:33.298Z,63.81
2023-02-28T12:34:39.343Z,63.09
2023-02-28T12:37:44.011Z,64.03
2023-02-28T12:40:48.759Z,64.16
2023-02-28T12:43:54.023Z,64.12
2023-02-28T12:46:59.270Z,63.35
2023-02-28T12:50:04.304Z,62.58
2023-02-28T12:53:07.936Z,63.41
2023-02-28T12:56:16.120Z,62.70
2023-02-28T12:59:23.931Z,63.27
2023-02-28T13:02:44.518Z,62.93
2023-02-28T13:06:04.743Z,63.31
2023-02-28T13:09:10.301Z,62.28
2023-02-28T13:12:16.244Z,61.42
2023-02-28T13:15:22.489Z,61.51
2023-02-28T13:18:29.784Z,62.32
2023-02-28T13:21:42.605Z,60.42
2023-02-28T13:24:46.107Z,60.80
2023-02-28T13:27:51.639Z,61.37
2023-02-28T13:31:06.013Z,60.37
2023-02-28T13:34:15.440Z,60.31
2023-02-28T13:37:38.034Z,59.98
2023-02-28T13:40:39.628Z,60.20
2023-02-28T13:44:00.654Z,59.95
2023-02-28T13:47:20.617Z,59.43
2023-02-28T13:50:24.906Z,61.22
2023-02-28T13:53:37.526Z,60.45
2023-02-28T13:56:45.971Z,60.33
2023-02-28T13:59:51.497Z,59.83
2023-02-28T14:03:04.187Z,59.27
2023-02-28T14:06:10.988Z,59.17
2023-02-28T14:09:20.439Z,59.40
2023-02-28T14:12:40.780Z,59.09
2023-02-28T14:15:45.918Z,59.97
2023-02-28T14:18:51.097Z,59.47
2023-02-28T14:22:03.735Z,59.58
2023-02-28T14:25:18.754Z,59.03
2023-02-28T14:28:25.554Z,58.77
2023-02-28T14:31:31.313Z,59.13
2023-02-28T14:34:38.697Z,58.76
2023-02-28T14:37:42.257Z,58.38
2023-02-28T14:40:46.643Z,59.06
2023-02-28T14:43:49.351Z,58.47
2023-02-28T14:46:53.116Z,58.26
2023-02-28T14:49:54.971Z,57.67
2023-02-28T14:52:57.405Z,58.36
2023-02-28T14:56:01.260Z,58.10
2023-02-28T14:59:03.088Z,58.71
2023-02-28T15:02:17.630Z,59.12
2023-02-28T15:05:29.586Z,58.41
2023-02-28T15:08:36.089Z,57.20
2023-02-28T15:11:40.085Z,57.69
2023-02-28T15:14:43.537Z,58.02
2023-02-28T15:17:47.912Z,58.72
2023-02-28T15:20:50.372Z,58.22
2023-02-28T15:23:54.272Z,58.81
2023-02-28T15:26:59.050Z,57.46
2023-02-28T15:30:01.610Z,58.79
2023-02-28T15:33:09.378Z,58.76
2023-02-28T15:36:14.379Z,58.37
2023-02-28T15:39:23.104Z,58.29
2023-02-28T15:42:29.245Z,58.07
2023-02-28T15:45:36.323Z,58.61
2023-02-28T15:48:39.015Z,58.84
2023-02-28T15:51:40.871Z,58.58
2023-02-28T15:54:43.903Z,58.26
2023-02-28T15:57:47.661Z,58.06
2023-02-28T16:01:00.997Z,58.52
2023-02-28T16:04:04.393Z,58.13
2023-02-28T16:07:06.930Z,58.28
2023-02-28T16:10:10.209Z,58.10
2023-02-28T16:13:16.152Z,58.60
2023-02-28T16:16:18.403Z,58.97
2023-02-28T16:19:20.143Z,58.45
2023-02-28T16:22:22.255Z,58.62
2023-02-28T16:25:24.847Z,58.65
2023-02-28T16:28:30.843Z,59.14
2023-02-28T16:31:35.751Z,59.43
2023-02-28T16:34:37.605Z,59.77
2023-02-28T16:37:39.778Z,60.42
2023-02-28T16:40:41.796Z,60.63
2023-02-28T16:43:44.640Z,61.03
2023-02-28T16:50:13.943Z,62.14
2023-02-28T16:53:15.985Z,62.03
2023-02-28T16:56:19.485Z,62.50
2023-02-28T16:59:23.054Z,63.20
2023-02-28T17:02:25.110Z,63.03
2023-02-28T17:05:30.239Z,62.87
2023-02-28T17:08:33.432Z,62.93
2023-02-28T17:11:35.050Z,63.57
2023-02-28T17:14:36.855Z,64.17
2023-02-28T17:17:38.821Z,63.80
2023-02-28T17:20:44.986Z,64.39
2023-02-28T17:23:46.647Z,64.34
2023-02-28T17:26:48.254Z,64.75
2023-02-28T17:29:49.907Z,64.67
2023-02-28T17:39:27.941Z,65.56
2023-02-28T17:42:29.506Z,65.33
2023-02-28T17:45:31.192Z,66.47
2023-02-28T17:48:33.103Z,66.39
2023-02-28T17:51:34.725Z,66.96
2023-02-28T17:54:37.879Z,67.29
2023-02-28T17:57:39.994Z,66.95
2023-02-28T18:00:41.749Z,67.64
2023-02-28T18:03:43.478Z,67.93
2023-02-28T18:06:48.364Z,68.24
2023-02-28T18:09:51.303Z,67.88
2023-02-28T18:12:53.465Z,68.13
2023-02-28T18:15:55.271Z,67.98
2023-02-28T18:18:57.744Z,68.38
2023-02-28T18:21:59.453Z,68.36
2023-02-28T18:25:02.357Z,68.60
2023-02-28T18:28:05.752Z,68.70
2023-02-28T18:31:09.594Z,68.76
2023-02-28T18:34:11.447Z,68.67
2023-02-28T18:37:13.584Z,69.17
2023-02-28T18:40:16.644Z,69.19
2023-02-28T18:43:19.109Z,69.37
2023-02-28T18:46:21.096Z,69.30
2023-02-28T18:49:22.874Z,69.68
2023-02-28T18:52:24.483Z,69.89
2023-02-28T18:58:40.989Z,69.67
2023-02-28T19:05:03.614Z,69.53
2023-02-28T19:08:05.334Z,70.35
2023-02-28T19:11:07.938Z,69.93
2023-02-28T19:14:10.830Z,70.41
2023-02-28T19:17:14.453Z,70.78
2023-02-28T19:20:16.740Z,71.46
2023-02-28T19:23:19.251Z,71.12
2023-02-28T19:26:22.663Z,71.02
2023-02-28T19:29:25.589Z,71.04
2023-02-28T19:36:13.411Z,70.32
2023-02-28T19:39:14.978Z,70.47
2023-02-28T19:42:17.361Z,70.62
2023-02-28T19:45:20.441Z,70.56
2023-02-28T19:48:26.168Z,70.69
2023-02-28T19:51:28.799Z,71.11
2023-02-28T19:54:30.860Z,71.29
2023-02-28T19:57:32.570Z,71.26
2023-02-28T20:00:35.721Z,71.68
2023-02-28T20:03:39.440Z,71.40
2023-02-28T20:06:42.034Z,71.13
2023-02-28T20:09:44.889Z,71.14
2023-02-28T20:12:46.637Z,71.10
2023-02-28T20:15:49.853Z,71.67
2023-02-28T20:18:51.607Z,71.81
2023-02-28T20:21:53.494Z,71.38
2023-02-28T20:24:55.131Z,71.65
2023-02-28T20:27:57.230Z,72.03
2023-02-28T20:31:00.875Z,72.29
2023-02-28T20:34:02.895Z,71.89
2023-02-28T20:40:25.589Z,71.49
2023-02-28T20:43:27.424Z,71.59
2023-02-28T20:46:31.727Z,72.02
2023-02-28T20:49:33.778Z,72.18
2023-02-28T20:52:35.328Z,71.56
2023-02-28T20:55:37.156Z,71.64
2023-02-28T20:58:38.767Z,71.72
2023-02-28T21:01:44.734Z,71.59
2023-02-28T21:04:46.371Z,71.88
2023-02-28T21:07:48.248Z,71.50
2023-02-28T21:10:53.219Z,71.77
2023-02-28T21:13:55.361Z,71.69
2023-02-28T21:16:58.520Z,72.15
2023-02-28T21:20:00.279Z,72.57
2023-02-28T21:23:02.424Z,72.63
2023-02-28T21:26:05.419Z,72.39
2023-02-28T21:29:07.508Z,72.25
2023-02-28T21:32:10.767Z,72.12
2023-02-28T21:35:12.654Z,72.44
2023-02-28T21:38:14.278Z,72.27
2023-02-28T21:44:30.712Z,72.80
2023-02-28T21:47:36.597Z,72.83
2023-02-28T21:50:38.675Z,72.99
2023-02-28T21:53:44.672Z,73.23
2023-02-28T21:56:47.034Z,73.09
2023-02-28T21:59:48.669Z,73.81
2023-02-28T22:02:51.540Z,73.97
2023-02-28T22:05:53.146Z,74.16
2023-02-28T22:08:56.391Z,74.38
2023-02-28T22:11:58.119Z,75.09
2023-02-28T22:14:59.687Z,75.05
2023-02-28T22:18:02.598Z,75.03
2023-02-28T22:21:04.625Z,75.32
2023-02-28T22:24:06.817Z,75.52
2023-02-28T22:27:08.572Z,75.37
2023-02-28T22:37:26.254Z,75.82
2023-02-28T22:40:27.743Z,75.84
2023-02-28T22:43:30.048Z,75.75
2023-02-28T22:46:33.171Z,75.58
2023-02-28T22:49:35.180Z,75.34
2023-02-28T22:52:41.008Z,75.57
2023-02-28T22:55:42.583Z,75.91
2023-02-28T22:58:48.305Z,76.25
2023-02-28T23:01:50.040Z,75.77
2023-02-28T23:04:51.834Z,75.85
2023-02-28T23:07:54.919Z,75.71
2023-02-28T23:10:56.488Z,76.03
2023-02-28T23:13:58.849Z,75.85
2023-02-28T23:17:00.673Z,75.85
2023-02-28T23:20:02.191Z,76.08
2023-02-28T23:23:05.446Z,75.86
2023-02-28T23:26:07.527Z,76.10
2023-02-28T23:29:09.642Z,76.07
2023-02-28T23:32:11.377Z,76.33
2023-02-28T23:35:12.990Z,76.67
2023-02-28T23:38:15.897Z,76.38
2023-02-28T23:41:18.096Z,76.37
2023-02-28T23:44:19.831Z,76.93
2023-02-28T23:47:22.343Z,76.81
2023-02-28T23:50:23.880Z,76.81
2023-02-28T23:53:29.771Z,76.90
2023-02-28T23:56:31.832Z,77.43
2023-02-28T23:59:33.906Z,77.20
